createdAt,value
2022-11-05T00:00:37.920Z,15.35
2022-11-05T00:03:23.783Z,15.35
2022-11-05T00:06:12.563Z,15.32
2022-11-05T00:08:59.541Z,15.35
2022-11-05T00:11:46.666Z,15.29
2022-11-05T00:14:32.736Z,15.21
2022-11-05T00:16:59.515Z,15.24
2022-11-05T00:19:26.257Z,15.30
2022-11-05T00:22:11.726Z,15.28
2022-11-05T00:24:56.962Z,15.27
2022-11-05T00:27:23.829Z,15.25
2022-11-05T00:29:50.659Z,15.20
2022-11-05T00:32:17.464Z,15.21
2022-11-05T00:34:44.367Z,15.22
2022-11-05T00:37:11.135Z,15.23
2022-11-05T00:39:37.979Z,15.32
2022-11-05T00:42:23.452Z,15.30
2022-11-05T00:45:02.397Z,15.25
2022-11-05T00:47:51.859Z,15.19
2022-11-05T00:50:20.735Z,15.16
2022-11-05T00:53:06.582Z,15.20
2022-11-05T00:55:41.995Z,15.29
2022-11-05T00:58:17.688Z,15.24
2022-11-05T01:00:50.272Z,15.28
2022-11-05T01:03:19.951Z,15.27
2022-11-05T01:05:49.370Z,15.34
2022-11-05T01:08:18.231Z,15.39
2022-11-05T01:10:51.298Z,15.37
2022-11-05T01:13:21.084Z,15.43
2022-11-05T01:15:50.907Z,15.47
2022-11-05T01:18:19.413Z,15.48
2022-11-05T01:20:46.576Z,15.44
2022-11-05T01:23:14.199Z,15.36
2022-11-05T01:25:42.442Z,15.30
2022-11-05T01:28:09.974Z,15.27
2022-11-05T01:30:37.707Z,15.22
2022-11-05T01:33:04.670Z,15.14
2022-11-05T01:35:31.651Z,15.18
2022-11-05T01:38:01.422Z,15.23
2022-11-05T01:40:28.328Z,15.22
2022-11-05T01:42:55.177Z,15.18
2022-11-05T01:45:25.049Z,15.22
2022-11-05T01:47:51.869Z,15.14
2022-11-05T01:50:30.692Z,15.16
2022-11-05T01:53:12.933Z,15.10
2022-11-05T01:55:55.955Z,15.05
2022-11-05T01:58:26.377Z,15.06
2022-11-05T02:00:54.263Z,14.98
2022-11-05T02:03:21.415Z,14.99
2022-11-05T02:05:49.991Z,14.94
2022-11-05T02:08:27.340Z,14.95
2022-11-05T02:10:54.553Z,14.98
2022-11-05T02:13:21.435Z,14.99
2022-11-05T02:16:13.144Z,14.99
2022-11-05T02:18:58.592Z,14.97
2022-11-05T02:21:34.697Z,14.94
2022-11-05T02:24:35.556Z,14.98
2022-11-05T02:27:37.997Z,14.95
2022-11-05T02:30:28.238Z,15.02
2022-11-05T02:33:11.234Z,15.06
2022-11-05T02:35:47.347Z,15.02
2022-11-05T02:38:35.835Z,14.99
2022-11-05T02:41:14.409Z,15.01
2022-11-05T02:44:13.266Z,15.02
2022-11-05T02:46:57.998Z,14.93
2022-11-05T02:50:20.191Z,14.94
2022-11-05T02:52:57.654Z,15.00
2022-11-05T02:55:51.490Z,15.03
2022-11-05T02:58:18.317Z,15.02
2022-11-05T03:00:50.041Z,14.93
2022-11-05T03:03:40.287Z,14.89
2022-11-05T03:25:58.214Z,14.04
2022-11-05T03:28:30.248Z,14.16
2022-11-05T03:30:59.341Z,14.23
2022-11-05T03:33:30.087Z,14.34
2022-11-05T03:36:00.963Z,14.37
2022-11-05T03:38:34.746Z,14.44
2022-11-05T03:41:06.900Z,14.51
2022-11-05T03:43:38.310Z,14.58
2022-11-05T03:46:12.466Z,14.62
2022-11-05T03:48:41.948Z,14.67
2022-11-05T03:51:12.705Z,14.58
2022-11-05T03:53:55.774Z,14.69
2022-11-05T03:56:37.885Z,14.60
2022-11-05T03:59:07.657Z,14.56
2022-11-05T04:01:36.993Z,14.64
2022-11-05T04:04:06.425Z,14.68
2022-11-05T04:06:51.755Z,14.65
2022-11-05T04:09:37.092Z,14.68
2022-11-05T04:12:22.774Z,14.67
2022-11-05T04:14:49.610Z,14.64
2022-11-05T04:17:16.501Z,14.59
2022-11-05T04:20:03.581Z,14.47
2022-11-05T04:22:51.420Z,14.42
2022-11-05T04:25:20.274Z,14.51
2022-11-05T04:27:47.745Z,14.46
2022-11-05T04:30:19.754Z,14.39
2022-11-05T04:33:07.010Z,14.45
2022-11-05T04:35:39.844Z,14.43
2022-11-05T04:38:09.448Z,14.31
2022-11-05T04:40:37.061Z,14.37
2022-11-05T04:43:04.440Z,14.27
2022-11-05T04:45:34.549Z,14.41
2022-11-05T04:48:02.562Z,14.40
2022-11-05T04:50:29.817Z,14.32
2022-11-05T04:52:56.734Z,14.23
2022-11-05T04:55:23.832Z,14.20
2022-11-05T04:57:52.038Z,14.17
2022-11-05T05:00:20.850Z,14.25
2022-11-05T05:02:49.024Z,14.32
2022-11-05T05:05:16.396Z,14.40
2022-11-05T05:07:43.374Z,14.41
2022-11-05T05:10:11.386Z,14.47
2022-11-05T05:12:38.265Z,14.42
2022-11-05T05:15:05.492Z,14.43
2022-11-05T05:17:32.339Z,14.54
2022-11-05T05:20:17.691Z,14.49
2022-11-05T05:22:44.522Z,14.64
2022-11-05T05:25:11.342Z,14.63
2022-11-05T05:27:38.152Z,14.68
2022-11-05T05:30:05.387Z,14.70
2022-11-05T05:32:32.220Z,14.79
2022-11-05T05:34:59.053Z,14.87
2022-11-05T05:37:25.997Z,14.92
2022-11-05T05:39:53.700Z,14.87
2022-11-05T05:42:22.928Z,14.94
2022-11-05T05:44:49.816Z,15.02
2022-11-05T05:47:16.640Z,14.93
2022-11-05T05:49:43.438Z,14.89
2022-11-05T05:52:10.324Z,14.98
2022-11-05T05:54:42.255Z,15.00
2022-11-05T05:57:10.063Z,15.07
2022-11-05T05:59:36.985Z,15.13
2022-11-05T06:02:03.908Z,15.30
2022-11-05T06:04:30.871Z,15.23
2022-11-05T06:06:57.681Z,15.35
2022-11-05T06:09:24.976Z,15.44
2022-11-05T06:11:51.709Z,15.61
2022-11-05T06:14:18.632Z,15.74
2022-11-05T06:16:48.087Z,15.87
2022-11-05T06:19:14.979Z,16.14
2022-11-05T06:21:41.882Z,16.32
2022-11-05T06:24:09.147Z,16.26
2022-11-05T06:26:36.007Z,16.49
2022-11-05T06:29:02.954Z,16.50
2022-11-05T06:31:30.843Z,16.62
2022-11-05T06:33:57.698Z,16.75
2022-11-05T06:36:24.511Z,16.85
2022-11-05T06:38:51.292Z,17.10
2022-11-05T06:41:18.141Z,17.06
2022-11-05T06:43:45.046Z,17.50
2022-11-05T06:46:12.136Z,18.00
2022-11-05T06:48:39.488Z,18.87
2022-11-05T06:51:08.276Z,19.86
2022-11-05T06:53:36.029Z,20.12
2022-11-05T06:56:07.674Z,20.32
2022-11-05T06:58:34.962Z,21.06
2022-11-05T07:01:06.010Z,21.59
2022-11-05T07:03:32.912Z,21.65
2022-11-05T07:06:04.410Z,22.94
2022-11-05T07:08:32.685Z,23.10
2022-11-05T07:11:00.231Z,23.59
2022-11-05T07:13:27.530Z,23.23
2022-11-05T07:15:54.631Z,22.45
2022-11-05T07:18:22.043Z,23.05
2022-11-05T07:20:49.492Z,23.69
2022-11-05T07:23:17.189Z,23.66
2022-11-05T07:25:44.305Z,23.99
2022-11-05T07:28:11.834Z,23.12
2022-11-05T07:30:38.731Z,23.24
2022-11-05T07:33:05.587Z,24.03
2022-11-05T07:35:32.467Z,24.86
2022-11-05T07:37:59.326Z,26.12
2022-11-05T07:40:28.378Z,27.05
2022-11-05T07:42:57.843Z,26.24
2022-11-05T07:45:26.383Z,26.97
2022-11-05T07:48:01.368Z,26.84
2022-11-05T07:50:36.612Z,26.55
2022-11-05T07:53:14.826Z,26.42
2022-11-05T07:55:42.241Z,26.30
2022-11-05T07:58:09.910Z,25.58
2022-11-05T08:00:36.878Z,25.62
2022-11-05T08:03:16.323Z,26.11
2022-11-05T08:05:46.272Z,25.37
2022-11-05T08:08:16.126Z,25.83
2022-11-05T08:10:43.133Z,25.07
2022-11-05T08:13:12.072Z,25.32
2022-11-05T08:15:39.703Z,26.04
2022-11-05T08:18:10.812Z,25.41
2022-11-05T08:20:38.646Z,25.07
2022-11-05T08:23:05.955Z,25.99
2022-11-05T08:25:33.406Z,26.54
2022-11-05T08:28:02.558Z,26.61
2022-11-05T08:30:30.952Z,25.96
2022-11-05T08:33:00.194Z,26.31
2022-11-05T08:35:27.944Z,26.70
2022-11-05T08:37:59.403Z,26.71
2022-11-05T08:40:27.061Z,26.47
2022-11-05T08:42:57.692Z,25.70
2022-11-05T08:45:28.264Z,24.70
2022-11-05T08:48:07.073Z,23.91
2022-11-05T08:50:34.907Z,25.00
2022-11-05T08:53:01.870Z,23.78
2022-11-05T08:55:28.901Z,24.63
2022-11-05T08:58:01.749Z,25.31
2022-11-05T09:00:31.001Z,25.42
2022-11-05T09:03:02.908Z,26.00
2022-11-05T09:05:30.969Z,25.05
2022-11-05T09:08:01.378Z,24.82
2022-11-05T09:10:28.738Z,24.34
2022-11-05T09:12:55.722Z,23.58
2022-11-05T09:15:23.499Z,24.31
2022-11-05T09:17:50.876Z,24.33
2022-11-05T09:20:17.869Z,24.13
2022-11-05T09:22:46.333Z,24.94
2022-11-05T09:25:15.330Z,26.11
2022-11-05T09:27:42.942Z,27.09
2022-11-05T09:30:10.754Z,26.73
2022-11-05T09:32:38.064Z,26.74
2022-11-05T09:35:05.481Z,27.16
2022-11-05T09:37:32.665Z,26.47
2022-11-05T09:39:59.553Z,27.34
2022-11-05T09:42:33.129Z,26.95
2022-11-05T09:45:03.608Z,27.30
2022-11-05T09:47:34.785Z,26.73
2022-11-05T09:50:06.851Z,26.13
2022-11-05T09:52:34.639Z,26.28
2022-11-05T09:55:06.578Z,25.26
2022-11-05T09:57:44.270Z,24.76
2022-11-05T10:00:18.409Z,25.59
2022-11-05T10:02:56.502Z,25.55
2022-11-05T10:05:27.681Z,26.17
2022-11-05T10:07:59.506Z,25.83
2022-11-05T10:10:26.379Z,25.24
2022-11-05T10:12:57.429Z,24.21
2022-11-05T10:15:34.687Z,24.31
2022-11-05T10:18:15.393Z,24.66
2022-11-05T10:20:43.179Z,24.32
2022-11-05T10:23:12.870Z,24.41
2022-11-05T10:25:44.451Z,25.59
2022-11-05T10:28:19.867Z,26.30
2022-11-05T10:30:49.758Z,25.60
2022-11-05T10:33:24.897Z,25.65
2022-11-05T10:35:55.801Z,25.92
2022-11-05T10:38:22.641Z,26.55
2022-11-05T10:41:02.309Z,27.13
2022-11-05T10:43:54.127Z,26.89
2022-11-05T10:46:23.872Z,27.33
2022-11-05T10:49:32.685Z,27.11
2022-11-05T10:52:06.065Z,27.65
2022-11-05T10:54:35.367Z,26.81
2022-11-05T10:57:27.725Z,26.59
2022-11-05T11:00:19.468Z,26.64
2022-11-05T11:02:50.091Z,26.15
2022-11-05T11:05:36.267Z,26.93
2022-11-05T11:08:11.423Z,26.45
2022-11-05T11:10:57.558Z,25.85
2022-11-05T11:13:47.958Z,25.90
2022-11-05T11:16:26.723Z,26.35
2022-11-05T11:18:54.639Z,26.80
2022-11-05T11:21:26.425Z,26.71
2022-11-05T11:24:07.053Z,25.89
2022-11-05T11:26:37.340Z,25.94
2022-11-05T11:29:44.004Z,25.69
2022-11-05T11:32:18.793Z,25.55
2022-11-05T11:34:49.909Z,25.80
2022-11-05T11:37:33.115Z,26.06
2022-11-05T11:40:17.086Z,25.51
2022-11-05T11:42:56.808Z,25.24
2022-11-05T11:45:47.049Z,25.93
2022-11-05T11:48:21.801Z,25.45
2022-11-05T11:50:49.718Z,25.68
2022-11-05T11:53:22.224Z,25.40
2022-11-05T11:55:55.067Z,26.00
2022-11-05T11:58:23.822Z,26.25
2022-11-05T12:01:03.954Z,25.21
2022-11-05T12:03:45.914Z,25.17
2022-11-05T12:06:30.409Z,24.70
2022-11-05T12:09:13.089Z,22.69
2022-11-05T12:11:50.858Z,21.57
2022-11-05T12:14:17.698Z,20.63
2022-11-05T12:16:45.840Z,20.04
2022-11-05T12:19:45.791Z,19.60
2022-11-05T12:22:30.634Z,19.14
2022-11-05T12:25:09.237Z,18.80
2022-11-05T12:27:36.020Z,18.66
2022-11-05T12:30:08.824Z,18.52
2022-11-05T12:32:54.393Z,18.63
2022-11-05T12:35:23.986Z,18.79
2022-11-05T12:38:23.401Z,18.61
2022-11-05T12:41:32.541Z,18.57
2022-11-05T12:44:20.117Z,18.49
2022-11-05T12:47:01.949Z,18.51
2022-11-05T12:49:54.506Z,18.60
2022-11-05T12:52:52.099Z,18.67
2022-11-05T12:55:25.729Z,18.77
2022-11-05T12:57:57.275Z,18.57
2022-11-05T13:00:26.541Z,18.45
2022-11-05T13:03:24.090Z,18.08
2022-11-05T13:06:01.458Z,18.11
2022-11-05T13:08:52.390Z,18.01
2022-11-05T13:11:44.693Z,17.74
2022-11-05T13:14:20.213Z,17.66
2022-11-05T13:16:51.432Z,17.61
2022-11-05T13:19:37.657Z,17.66
2022-11-05T13:22:22.056Z,17.71
2022-11-05T13:24:49.931Z,17.72
2022-11-05T13:27:59.696Z,17.70
2022-11-05T13:30:37.677Z,17.69
2022-11-05T13:33:15.588Z,17.75
2022-11-05T13:36:21.944Z,17.78
2022-11-05T13:39:07.224Z,17.82
2022-11-05T13:41:57.406Z,17.83
2022-11-05T13:44:26.939Z,17.77
2022-11-05T13:46:53.738Z,17.69
2022-11-05T13:49:32.589Z,17.59
2022-11-05T13:52:36.582Z,17.46
2022-11-05T13:55:18.594Z,17.43
2022-11-05T13:57:53.279Z,17.36
2022-11-05T14:00:29.223Z,17.23
2022-11-05T14:03:06.413Z,17.07
2022-11-05T14:05:39.469Z,17.09
2022-11-05T14:08:18.791Z,17.10
2022-11-05T14:10:58.401Z,17.08
2022-11-05T14:13:44.038Z,17.10
2022-11-05T14:16:19.571Z,17.13
2022-11-05T14:19:06.479Z,17.11
2022-11-05T14:21:47.560Z,17.06
2022-11-05T14:24:23.270Z,16.98
2022-11-05T14:27:02.220Z,16.96
2022-11-05T14:29:42.338Z,16.90
2022-11-05T14:32:21.232Z,16.79
2022-11-05T14:34:49.518Z,16.72
2022-11-05T14:37:23.936Z,16.62
2022-11-05T14:39:51.406Z,16.53
2022-11-05T14:42:29.646Z,16.37
2022-11-05T14:45:05.606Z,16.35
2022-11-05T14:47:37.553Z,16.14
2022-11-05T14:50:22.095Z,16.11
2022-11-05T14:52:57.573Z,15.99
2022-11-05T14:55:29.691Z,15.90
2022-11-05T14:57:56.526Z,15.86
2022-11-05T15:00:29.174Z,15.81
2022-11-05T15:03:23.910Z,15.75
2022-11-05T15:05:51.734Z,15.73
2022-11-05T15:08:37.376Z,15.62
2022-11-05T15:27:37.837Z,14.98
2022-11-05T15:30:20.183Z,15.12
2022-11-05T15:32:47.235Z,15.22
2022-11-05T15:35:29.210Z,15.27
2022-11-05T15:38:02.006Z,15.35
2022-11-05T15:40:33.446Z,15.44
2022-11-05T15:43:17.735Z,15.47
2022-11-05T15:46:00.114Z,15.50
2022-11-05T15:48:27.004Z,15.54
2022-11-05T15:50:54.042Z,15.62
2022-11-05T15:53:56.053Z,15.64
2022-11-05T15:56:23.362Z,15.58
2022-11-05T15:58:53.771Z,15.60
2022-11-05T16:01:29.272Z,15.54
2022-11-05T16:04:17.322Z,15.44
2022-11-05T16:06:47.790Z,15.47
2022-11-05T16:09:26.199Z,15.50
2022-11-05T16:12:18.493Z,15.55
2022-11-05T16:15:00.091Z,15.55
2022-11-05T16:17:30.118Z,15.47
2022-11-05T16:19:57.649Z,15.49
2022-11-05T16:22:25.510Z,15.52
2022-11-05T16:24:52.420Z,15.51
2022-11-05T16:27:22.551Z,15.52
2022-11-05T16:29:57.447Z,15.52
2022-11-05T16:32:29.684Z,15.50
2022-11-05T16:35:00.221Z,15.41
2022-11-05T16:37:29.488Z,15.33
2022-11-05T16:39:56.471Z,15.33
2022-11-05T16:42:23.252Z,15.37
2022-11-05T16:44:55.314Z,15.37
2022-11-05T16:47:22.792Z,15.36
2022-11-05T16:49:50.617Z,15.33
2022-11-05T16:52:17.860Z,15.27
2022-11-05T16:54:45.447Z,15.35
2022-11-05T16:57:21.436Z,15.30
2022-11-05T16:59:48.309Z,15.28
2022-11-05T17:02:15.411Z,15.33
2022-11-05T17:04:42.284Z,15.31
2022-11-05T17:07:09.119Z,15.30
2022-11-05T17:09:35.942Z,15.36
2022-11-05T17:12:03.032Z,15.30
2022-11-05T17:14:29.870Z,15.30
2022-11-05T17:16:56.687Z,15.29
2022-11-05T17:19:23.500Z,15.29
2022-11-05T17:21:50.544Z,15.27
2022-11-05T17:24:17.442Z,15.27
2022-11-05T17:26:44.326Z,15.29
2022-11-05T17:29:11.346Z,15.28
2022-11-05T17:31:40.653Z,15.31
2022-11-05T17:34:08.652Z,15.29
2022-11-05T17:36:35.522Z,15.31
2022-11-05T17:39:02.450Z,15.40
2022-11-05T17:41:29.338Z,15.42
2022-11-05T17:43:57.656Z,15.38
2022-11-05T17:46:25.010Z,15.39
2022-11-05T17:48:51.794Z,15.38
2022-11-05T17:51:19.900Z,15.32
2022-11-05T17:53:49.156Z,15.39
2022-11-05T17:56:32.210Z,15.39
2022-11-05T17:59:01.466Z,15.41
2022-11-05T18:01:31.254Z,15.43
2022-11-05T18:03:59.536Z,15.45
2022-11-05T18:06:28.198Z,15.46
2022-11-05T18:08:55.069Z,15.35
2022-11-05T18:11:21.868Z,15.38
2022-11-05T18:13:48.712Z,15.39
2022-11-05T18:16:15.652Z,15.35
2022-11-05T18:18:42.547Z,15.25
2022-11-05T18:21:09.322Z,15.17
2022-11-05T18:23:36.196Z,15.23
2022-11-05T18:26:11.482Z,15.19
2022-11-05T18:28:38.749Z,15.20
2022-11-05T18:31:15.290Z,15.17
2022-11-05T18:33:44.895Z,15.11
2022-11-05T18:36:19.442Z,15.11
2022-11-05T18:38:46.842Z,15.08
2022-11-05T18:41:14.222Z,14.99
2022-11-05T18:43:41.606Z,14.90
2022-11-05T18:46:08.898Z,14.81
2022-11-05T18:48:36.165Z,14.77
2022-11-05T18:51:14.892Z,14.69
2022-11-05T18:53:42.329Z,14.70
2022-11-05T18:56:18.519Z,14.75
2022-11-05T18:58:45.830Z,14.57
2022-11-05T19:01:15.124Z,14.60
2022-11-05T19:03:42.355Z,14.60
2022-11-05T19:06:09.666Z,14.52
2022-11-05T19:08:37.142Z,14.42
2022-11-05T19:11:24.826Z,14.46
2022-11-05T19:13:52.523Z,14.48
2022-11-05T19:16:25.811Z,14.44
2022-11-05T19:18:53.107Z,14.38
2022-11-05T19:21:22.793Z,14.27
2022-11-05T19:23:50.117Z,14.39
2022-11-05T19:26:23.025Z,14.45
2022-11-05T19:28:54.206Z,14.50
2022-11-05T19:31:23.715Z,14.52
2022-11-05T19:33:52.023Z,14.43
2022-11-05T19:36:20.783Z,14.50
2022-11-05T19:38:49.696Z,14.51
2022-11-05T19:41:19.743Z,14.48
2022-11-05T19:43:46.860Z,14.42
2022-11-05T19:46:19.336Z,14.38
2022-11-05T19:48:46.896Z,14.42
2022-11-05T19:51:17.090Z,14.31
2022-11-05T19:53:44.270Z,14.41
2022-11-05T19:56:14.177Z,14.43
2022-11-05T19:58:41.795Z,14.36
2022-11-05T20:01:09.816Z,14.37
2022-11-05T20:03:37.862Z,14.32
2022-11-05T20:06:10.143Z,14.29
2022-11-05T20:08:53.067Z,14.32
2022-11-05T20:11:24.012Z,14.37
2022-11-05T20:13:51.005Z,14.37
2022-11-05T20:16:29.658Z,14.35
2022-11-05T20:18:57.452Z,14.21
2022-11-05T20:21:24.254Z,14.24
2022-11-05T20:23:51.134Z,14.32
2022-11-05T20:26:18.125Z,14.36
2022-11-05T20:28:45.721Z,14.17
2022-11-05T20:31:15.241Z,14.26
2022-11-05T20:33:43.152Z,14.20
2022-11-05T20:36:16.441Z,14.22
2022-11-05T20:38:44.802Z,14.17
2022-11-05T20:41:12.842Z,14.23
2022-11-05T20:43:44.114Z,14.25
2022-11-05T20:46:14.730Z,14.22
2022-11-05T20:48:42.304Z,14.27
2022-11-05T20:51:14.685Z,14.25
2022-11-05T20:53:42.095Z,14.21
2022-11-05T20:56:09.569Z,14.13
2022-11-05T20:58:37.834Z,14.15
2022-11-05T21:01:05.832Z,14.21
2022-11-05T21:03:32.710Z,14.11
2022-11-05T21:06:04.580Z,14.13
2022-11-05T21:08:32.587Z,14.31
2022-11-05T21:10:59.814Z,14.20
2022-11-05T21:13:27.628Z,14.16
2022-11-05T21:15:57.974Z,14.19
2022-11-05T21:18:30.689Z,14.21
2022-11-05T21:20:58.052Z,14.28
2022-11-05T21:23:24.929Z,14.31
2022-11-05T21:25:51.756Z,14.26
2022-11-05T21:28:18.639Z,14.21
2022-11-05T21:30:46.611Z,14.26
2022-11-05T21:33:14.778Z,14.30
2022-11-05T21:35:47.017Z,14.31
2022-11-05T21:38:16.203Z,14.28
2022-11-05T21:40:43.390Z,14.33
2022-11-05T21:43:10.967Z,14.31
2022-11-05T21:45:39.891Z,14.32
2022-11-05T21:48:07.604Z,14.33
2022-11-05T21:50:53.864Z,14.29
2022-11-05T21:53:39.139Z,14.27
2022-11-05T21:56:26.560Z,14.26
2022-11-05T21:59:11.972Z,14.23
2022-11-05T22:01:38.981Z,14.18
2022-11-05T22:04:05.882Z,14.06
2022-11-05T22:06:33.432Z,14.02
2022-11-05T22:09:00.379Z,13.95
2022-11-05T22:11:27.297Z,13.99
2022-11-05T22:13:54.169Z,14.04
2022-11-05T22:16:21.006Z,14.00
2022-11-05T22:18:47.962Z,14.05
2022-11-05T22:21:19.134Z,14.05
2022-11-05T22:23:46.212Z,14.09
2022-11-05T22:26:13.061Z,13.98
2022-11-05T22:28:39.841Z,14.03
2022-11-05T22:31:17.218Z,14.07
2022-11-05T22:33:44.502Z,14.05
2022-11-05T22:36:11.753Z,13.95
2022-11-05T22:38:39.495Z,13.96
2022-11-05T22:41:08.195Z,13.83
2022-11-05T22:43:35.243Z,13.74
2022-11-05T22:46:07.024Z,13.69
2022-11-05T22:48:36.218Z,13.66
2022-11-05T22:51:05.476Z,13.62
2022-11-05T22:53:34.153Z,13.72
2022-11-05T22:56:12.357Z,13.64
2022-11-05T22:58:39.335Z,13.53
2022-11-05T23:01:08.273Z,13.55
2022-11-05T23:03:35.603Z,13.64
2022-11-05T23:06:04.734Z,13.61
2022-11-05T23:08:50.679Z,13.52
2022-11-05T23:11:41.274Z,13.45
2022-11-05T23:14:10.724Z,13.48
2022-11-05T23:16:56.711Z,13.51
2022-11-05T23:19:42.373Z,13.51
2022-11-05T23:22:33.399Z,13.58
2022-11-05T23:25:00.220Z,13.51
2022-11-05T23:27:32.696Z,13.54
2022-11-05T23:30:01.195Z,13.51
2022-11-05T23:32:30.622Z,13.55
2022-11-05T23:34:58.958Z,13.66
2022-11-05T23:37:48.460Z,13.60
2022-11-05T23:40:21.455Z,13.56
2022-11-05T23:43:07.445Z,13.53
2022-11-05T23:45:55.137Z,13.60
2022-11-05T23:48:33.060Z,13.55
2022-11-05T23:51:06.582Z,13.59
2022-11-05T23:53:36.118Z,13.64
2022-11-05T23:56:08.825Z,13.59
2022-11-05T23:58:36.998Z,13.47
